Here is the Quick Look data you requested

The Data originates at the National Weather Service, and is made available here by the UAlbany Department of Atmospheric and Environmental Sciences

Surface Observations

KFDK 180047Z 00000KT 10SM OVC033 02/M01 A2998=
KFDK 180147Z 00000KT 3SM -SN OVC028 02/00 A2999=
KFDK 180220Z AUTO 15009G15KT 3SM UP SCT030 BKN060 OVC085 01/00 A2992 RMK AO2
 P0005=
KFDK 180240Z AUTO 00000KT 5SM -SN SCT010 BKN023 OVC085 01/00 A2995 RMK AO2
 P0006=
KFDK 180300Z AUTO 16005KT 5SM UP BKN012 BKN017 OVC021 01/00 A2994 RMK AO2=
KFDK 180320Z AUTO 15006KT 7SM -SN OVC012 01/00 A2991 RMK AO2 P0001=
KFDK 180340Z AUTO 15006KT 110V170 5SM -RA OVC012 01/00 A2990 RMK AO2 P0002=
KFDK 180400Z AUTO 00000KT 5SM UP OVC010 01/01 A2991 RMK AO2=
KFDK 180420Z AUTO 15006KT 10SM -SN OVC010 02/01 A2987 RMK AO2=
KFDK 180445Z AUTO 16005KT 7SM -SN OVC010 02/01 A2990 RMK AO2=
KFDK 180505Z AUTO 21003KT 10SM -SN OVC010 02/01 A2988 RMK AO2=
KFDK 180525Z AUTO 19003KT 7SM -SN OVC008 02/01 A2988 RMK AO2=
KFDK 180545Z AUTO 14004KT 7SM -SN OVC008 02/01 A2987 RMK AO2=
KFDK 180605Z AUTO 00000KT 7SM UP OVC008 02/01 A2987 RMK AO2=
KFDK 180625Z AUTO 25004KT 10SM -RA OVC008 02/01 A2987 RMK AO2=
KFDK 180645Z AUTO 15004KT 7SM -RA OVC008 02/02 A2981 RMK AO2=
KFDK 180705Z AUTO 00000KT 7SM -SN OVC008 02/02 A2983 RMK AO2=
KFDK 180725Z AUTO 00000KT 7SM -RA OVC008 02/02 A2983 RMK AO2=
KFDK 180745Z AUTO 15003KT 7SM -RA OVC008 02/02 A2981 RMK AO2 P0001=
KFDK 180805Z AUTO 00000KT 7SM -RA OVC008 02/02 A2982 RMK AO2=
KFDK 180825Z AUTO 22003KT 7SM -RA OVC008 02/02 A2981 RMK AO2 P0001=
KFDK 180845Z AUTO 00000KT 7SM -SN OVC008 02/02 A2981 RMK AO2 P0001=
KFDK 180905Z AUTO 24003KT 7SM -SN BKN006 BKN012 OVC022 03/02 A2983 RMK AO2=
KFDK 180925Z AUTO 00000KT 7SM -SN SCT006 BKN021 OVC030 03/02 A2980 RMK AO2=
KFDK 180945Z AUTO 00000KT 7SM -SN BKN006 OVC032 02/02 A2981 RMK AO2=
KFDK 181005Z AUTO 00000KT 5SM -SN SCT004 OVC038 02/02 A2982 RMK AO2=
KFDK 181025Z AUTO 00000KT 5SM -SN SCT009 BKN040 02/02 A2983 RMK AO2=
KFDK 181045Z AUTO 00000KT 4SM -SN BKN044 02/02 A2984 RMK AO2=
KFDK 181105Z AUTO 00000KT 5SM -SN BKN044 02/02 A2983 RMK AO2=
KFDK 181125Z AUTO 00000KT 5SM -SN CLR 02/02 A2985 RMK AO2=
KFDK 181145Z AUTO 00000KT 7SM -SN SCT042 02/02 A2985 RMK AO2=
KFDK 181147Z 00000KT 5SM HZ SCT040 03/02 A2985=
KFDK 181155Z AUTO 00000KT 5SM -SN SCT040 02/02 A2984 RMK AO2=
KFDK 181247Z 00000KT 7SM HZ BKN042 03/02 A2988=
KFDK 181347Z 00000KT 10SM OVC042 06/03 A2993=
KFDK 181447Z 28012G17KT 10SM SCT040 OVC048 07/02 A2995=
KFDK 181547Z 29020G30KT 10SM BKN046 08/01 A3001=
KFDK 181647Z 29020G30KT 10SM OVC048 07/M01 A3005=
KFDK 181747Z 29015G20KT 10SM OVC044 06/M02 A3007=
KFDK 181848Z 28015G21KT 10SM BKN050 BKN070 07/M02 A3008=
KFDK 181948Z 28009G20KT 10SM BKN048 OVC060 07/M03 A3010=
KFDK 182047Z 32015KT 10SM BKN048 OVC060 06/M03 A3015 RMK PRESRR=
KFDK 182148Z 32014G22KT 10SM OVC050 05/M04 A3020=
KFDK 182248Z 31010G16KT 10SM OVC049 04/M04 A3025 RMK PRESRR=
KFDK 182348Z 32007G16KT 10SM OVC050 04/M05 A3029=
KFDK 190047Z 34009G15KT 10SM OVC050 03/M04 A3033=
KFDK 190147Z 35004KT 10SM OVC044 03/M04 A3037=
KFDK 190205Z AUTO 34004KT 10SM -SN OVC043 02/M05 A3037 RMK AO2=
KFDK 190225Z AUTO 35005KT 10SM -SN BKN041 OVC050 02/M04 A3038 RMK AO2=
KFDK 190245Z AUTO 35006KT 10SM -SN OVC039 02/M04 A3039 RMK AO2=
KFDK 190305Z AUTO 32007KT 10SM -SN OVC039 02/M04 A3040 RMK AO2=
KFDK 190325Z AUTO 34007KT 10SM -SN BKN039 OVC047 02/M05 A3041 RMK AO2=
KFDK 190345Z AUTO 32007KT 10SM -SN BKN042 OVC048 01/M05 A3043 RMK AO2=
KFDK 190405Z AUTO 33009KT 10SM -SN OVC044 01/M05 A3043 RMK AO2=
KFDK 190425Z AUTO 31008KT 10SM -SN OVC044 01/M05 A3045 RMK AO2=
KFDK 190445Z AUTO 31007KT 10SM -SN SCT039 BKN044 00/M05 A3045 RMK AO2=
KFDK 190505Z AUTO 30010KT 10SM CLR 00/M06 A3046 RMK AO2=
KFDK 190525Z AUTO 34007KT 10SM -SN CLR 00/M06 A3048 RMK AO2=
KFDK 190545Z AUTO 32009G15KT 10SM -SN CLR 00/M06 A3048 RMK AO2=
KFDK 190605Z AUTO 32006KT 10SM -SN CLR 00/M06 A3049 RMK AO2=
KFDK 190625Z AUTO 33007KT 10SM -SN CLR 00/M06 A3049 RMK AO2=
KFDK 190645Z AUTO 32008KT 10SM -SN CLR 00/M06 A3051 RMK AO2=
KFDK 190705Z AUTO 32007KT 10SM -SN CLR 00/M07 A3051 RMK AO2=
KFDK 190725Z AUTO 32009KT 7SM -SN CLR 00/M07 A3051 RMK AO2=